sensor_id;sensor_type;location;lat;lon;timestamp;pressure;altitude;pressure_sealevel;temperature;humidity
81520;BME280;70948;51.448;-0.148;2023-06-22T00:01:28;101633.49;;;25.18;24.13
81520;BME280;70948;51.448;-0.148;2023-06-22T00:03:54;101632.69;;;25.35;24.17
81520;BME280;70948;51.448;-0.148;2023-06-22T00:06:20;101634.46;;;25.48;24.03
81520;BME280;70948;51.448;-0.148;2023-06-22T00:08:45;101634.49;;;25.18;24.00
81520;BME280;70948;51.448;-0.148;2023-06-22T00:11:12;101631.93;;;25.21;24.07
81520;BME280;70948;51.448;-0.148;2023-06-22T00:13:37;101629.42;;;25.32;24.13
81520;BME280;70948;51.448;-0.148;2023-06-22T00:16:03;101629.78;;;25.10;24.15
81520;BME280;70948;51.448;-0.148;2023-06-22T00:18:28;101631.72;;;25.01;24.00
81520;BME280;70948;51.448;-0.148;2023-06-22T00:20:55;101634.24;;;25.56;23.89
81520;BME280;70948;51.448;-0.148;2023-06-22T00:23:20;101634.72;;;25.49;23.83
81520;BME280;70948;51.448;-0.148;2023-06-22T00:25:47;101632.91;;;25.58;23.78
81520;BME280;70948;51.448;-0.148;2023-06-22T00:28:11;101632.54;;;25.16;23.98
81520;BME280;70948;51.448;-0.148;2023-06-22T00:30:42;101632.52;;;25.98;23.74
81520;BME280;70948;51.448;-0.148;2023-06-22T00:33:03;101631.67;;;25.23;23.76
81520;BME280;70948;51.448;-0.148;2023-06-22T00:35:28;101627.38;;;25.74;23.75
81520;BME280;70948;51.448;-0.148;2023-06-22T00:37:54;101632.95;;;25.29;23.84
81520;BME280;70948;51.448;-0.148;2023-06-22T00:40:20;101635.64;;;25.45;23.86
81520;BME280;70948;51.448;-0.148;2023-06-22T00:42:46;101638.49;;;25.40;23.80
81520;BME280;70948;51.448;-0.148;2023-06-22T00:45:11;101642.33;;;25.56;23.68
81520;BME280;70948;51.448;-0.148;2023-06-22T00:47:37;101640.05;;;25.34;23.79
81520;BME280;70948;51.448;-0.148;2023-06-22T00:50:04;101638.89;;;25.61;23.75
81520;BME280;70948;51.448;-0.148;2023-06-22T00:52:28;101639.08;;;25.22;23.63
81520;BME280;70948;51.448;-0.148;2023-06-22T00:54:54;101639.53;;;25.65;23.75
81520;BME280;70948;51.448;-0.148;2023-06-22T00:57:20;101638.66;;;25.36;23.79
81520;BME280;70948;51.448;-0.148;2023-06-22T00:59:47;101637.97;;;25.53;23.58
81520;BME280;70948;51.448;-0.148;2023-06-22T01:02:12;101631.92;;;25.18;23.62
81520;BME280;70948;51.448;-0.148;2023-06-22T01:04:38;101631.26;;;25.44;23.67
81520;BME280;70948;51.448;-0.148;2023-06-22T01:07:09;101632.28;;;25.75;23.59
81520;BME280;70948;51.448;-0.148;2023-06-22T01:09:32;101634.44;;;25.30;23.69
81520;BME280;70948;51.448;-0.148;2023-06-22T01:11:57;101632.01;;;25.61;23.61
81520;BME280;70948;51.448;-0.148;2023-06-22T01:14:24;101628.24;;;25.63;23.73
81520;BME280;70948;51.448;-0.148;2023-06-22T01:16:46;101624.16;;;25.76;23.44
81520;BME280;70948;51.448;-0.148;2023-06-22T01:19:26;101624.68;;;25.31;23.55
81520;BME280;70948;51.448;-0.148;2023-06-22T01:21:37;101625.64;;;25.13;23.57
81520;BME280;70948;51.448;-0.148;2023-06-22T01:24:15;101622.48;;;25.45;23.45
81520;BME280;70948;51.448;-0.148;2023-06-22T01:26:37;101620.28;;;25.60;23.53
81520;BME280;70948;51.448;-0.148;2023-06-22T01:28:55;101618.83;;;25.39;23.69
81520;BME280;70948;51.448;-0.148;2023-06-22T01:31:22;101620.77;;;25.43;23.54
81520;BME280;70948;51.448;-0.148;2023-06-22T01:33:49;101623.01;;;25.51;23.48
81520;BME280;70948;51.448;-0.148;2023-06-22T01:36:12;101623.08;;;25.72;23.50
81520;BME280;70948;51.448;-0.148;2023-06-22T01:38:38;101620.42;;;25.61;23.54
81520;BME280;70948;51.448;-0.148;2023-06-22T01:41:03;101623.81;;;25.75;23.37
81520;BME280;70948;51.448;-0.148;2023-06-22T01:43:33;101622.93;;;25.66;23.50
81520;BME280;70948;51.448;-0.148;2023-06-22T01:46:02;101620.28;;;25.31;23.52
81520;BME280;70948;51.448;-0.148;2023-06-22T01:48:20;101620.06;;;25.24;23.61
81520;BME280;70948;51.448;-0.148;2023-06-22T01:50:45;101624.74;;;25.13;23.56
81520;BME280;70948;51.448;-0.148;2023-06-22T01:53:11;101625.76;;;25.33;23.40
81520;BME280;70948;51.448;-0.148;2023-06-22T01:55:37;101628.94;;;25.12;23.58
81520;BME280;70948;51.448;-0.148;2023-06-22T01:58:08;101625.53;;;25.66;23.36
81520;BME280;70948;51.448;-0.148;2023-06-22T02:00:32;101625.12;;;25.34;23.52
81520;BME280;70948;51.448;-0.148;2023-06-22T02:02:56;101623.93;;;25.59;23.45
81520;BME280;70948;51.448;-0.148;2023-06-22T02:05:19;101620.64;;;25.38;23.49
81520;BME280;70948;51.448;-0.148;2023-06-22T02:07:48;101615.59;;;25.44;23.37
81520;BME280;70948;51.448;-0.148;2023-06-22T02:10:14;101617.94;;;25.06;23.53
81520;BME280;70948;51.448;-0.148;2023-06-22T02:12:36;101619.97;;;25.26;23.36
81520;BME280;70948;51.448;-0.148;2023-06-22T02:15:02;101620.84;;;25.39;23.45
81520;BME280;70948;51.448;-0.148;2023-06-22T02:17:28;101619.00;;;25.36;23.31
81520;BME280;70948;51.448;-0.148;2023-06-22T02:19:53;101615.95;;;25.27;23.53
81520;BME280;70948;51.448;-0.148;2023-06-22T02:22:19;101614.67;;;25.30;23.42
81520;BME280;70948;51.448;-0.148;2023-06-22T02:24:44;101611.69;;;25.54;23.35
81520;BME280;70948;51.448;-0.148;2023-06-22T02:27:10;101614.30;;;25.69;23.47
81520;BME280;70948;51.448;-0.148;2023-06-22T02:29:37;101610.64;;;25.47;23.27
81520;BME280;70948;51.448;-0.148;2023-06-22T02:32:02;101610.45;;;25.16;23.40
81520;BME280;70948;51.448;-0.148;2023-06-22T02:34:27;101607.07;;;25.06;23.29
81520;BME280;70948;51.448;-0.148;2023-06-22T02:36:53;101606.89;;;25.48;23.32
81520;BME280;70948;51.448;-0.148;2023-06-22T02:39:20;101613.83;;;25.12;23.48
81520;BME280;70948;51.448;-0.148;2023-06-22T02:41:44;101610.84;;;25.52;23.26
81520;BME280;70948;51.448;-0.148;2023-06-22T02:44:10;101613.24;;;25.23;23.40
81520;BME280;70948;51.448;-0.148;2023-06-22T02:46:36;101617.34;;;25.07;23.53
81520;BME280;70948;51.448;-0.148;2023-06-22T02:49:02;101618.88;;;25.22;23.49
81520;BME280;70948;51.448;-0.148;2023-06-22T02:51:27;101619.19;;;25.67;23.29
81520;BME280;70948;51.448;-0.148;2023-06-22T02:53:53;101622.15;;;24.98;23.40
81520;BME280;70948;51.448;-0.148;2023-06-22T02:56:19;101623.25;;;25.48;23.36
81520;BME280;70948;51.448;-0.148;2023-06-22T02:58:44;101627.09;;;24.97;23.34
81520;BME280;70948;51.448;-0.148;2023-06-22T03:01:10;101627.19;;;24.88;23.58
81520;BME280;70948;51.448;-0.148;2023-06-22T03:03:36;101630.16;;;25.65;23.33
81520;BME280;70948;51.448;-0.148;2023-06-22T03:06:01;101630.60;;;25.09;23.42
81520;BME280;70948;51.448;-0.148;2023-06-22T03:08:27;101627.39;;;25.34;23.52
81520;BME280;70948;51.448;-0.148;2023-06-22T03:10:58;101623.61;;;25.30;23.41
81520;BME280;70948;51.448;-0.148;2023-06-22T03:13:18;101620.13;;;25.30;23.30
81520;BME280;70948;51.448;-0.148;2023-06-22T03:15:44;101620.02;;;25.18;23.46
81520;BME280;70948;51.448;-0.148;2023-06-22T03:18:10;101618.82;;;25.36;23.39
81520;BME280;70948;51.448;-0.148;2023-06-22T03:20:35;101619.22;;;25.21;23.33
81520;BME280;70948;51.448;-0.148;2023-06-22T03:23:01;101618.77;;;25.23;23.32
81520;BME280;70948;51.448;-0.148;2023-06-22T03:25:27;101617.18;;;25.22;23.22
81520;BME280;70948;51.448;-0.148;2023-06-22T03:27:53;101612.97;;;25.26;23.39
81520;BME280;70948;51.448;-0.148;2023-06-22T03:30:18;101609.81;;;25.50;23.24
81520;BME280;70948;51.448;-0.148;2023-06-22T03:32:44;101606.15;;;25.38;23.28
81520;BME280;70948;51.448;-0.148;2023-06-22T03:35:15;101606.40;;;25.05;23.23
81520;BME280;70948;51.448;-0.148;2023-06-22T03:37:35;101606.17;;;25.45;23.35
81520;BME280;70948;51.448;-0.148;2023-06-22T03:40:01;101601.51;;;25.58;23.14
81520;BME280;70948;51.448;-0.148;2023-06-22T03:42:27;101599.87;;;25.20;23.32
81520;BME280;70948;51.448;-0.148;2023-06-22T03:44:52;101593.73;;;25.31;23.40
81520;BME280;70948;51.448;-0.148;2023-06-22T03:47:18;101587.74;;;25.37;23.27
81520;BME280;70948;51.448;-0.148;2023-06-22T03:49:43;101587.40;;;25.17;23.34
81520;BME280;70948;51.448;-0.148;2023-06-22T03:52:09;101584.44;;;25.27;23.32
81520;BME280;70948;51.448;-0.148;2023-06-22T03:54:35;101577.94;;;25.05;23.19
81520;BME280;70948;51.448;-0.148;2023-06-22T03:57:00;101576.47;;;24.97;23.34
81520;BME280;70948;51.448;-0.148;2023-06-22T03:59:26;101570.16;;;24.91;23.16
81520;BME280;70948;51.448;-0.148;2023-06-22T04:01:52;101577.43;;;24.91;23.37
81520;BME280;70948;51.448;-0.148;2023-06-22T04:04:18;101581.43;;;25.19;23.29
81520;BME280;70948;51.448;-0.148;2023-06-22T04:06:43;101587.41;;;25.08;23.29
81520;BME280;70948;51.448;-0.148;2023-06-22T04:09:09;101588.59;;;25.24;23.23
81520;BME280;70948;51.448;-0.148;2023-06-22T04:11:35;101593.16;;;25.32;23.19
81520;BME280;70948;51.448;-0.148;2023-06-22T04:14:00;101596.13;;;25.22;23.13
81520;BME280;70948;51.448;-0.148;2023-06-22T04:16:26;101599.46;;;25.13;23.23
81520;BME280;70948;51.448;-0.148;2023-06-22T04:18:52;101603.79;;;25.06;23.26
81520;BME280;70948;51.448;-0.148;2023-06-22T04:21:19;101608.74;;;25.37;23.02
81520;BME280;70948;51.448;-0.148;2023-06-22T04:23:43;101608.69;;;25.01;23.24
81520;BME280;70948;51.448;-0.148;2023-06-22T04:26:09;101609.43;;;25.09;23.24
81520;BME280;70948;51.448;-0.148;2023-06-22T04:28:35;101605.21;;;25.41;23.16
81520;BME280;70948;51.448;-0.148;2023-06-22T04:31:01;101605.68;;;25.30;23.26
81520;BME280;70948;51.448;-0.148;2023-06-22T04:33:26;101605.13;;;25.02;23.34
81520;BME280;70948;51.448;-0.148;2023-06-22T04:35:52;101602.19;;;25.30;23.17
81520;BME280;70948;51.448;-0.148;2023-06-22T04:38:18;101602.99;;;25.49;23.15
81520;BME280;70948;51.448;-0.148;2023-06-22T04:40:43;101604.07;;;25.42;23.16
81520;BME280;70948;51.448;-0.148;2023-06-22T04:43:09;101600.78;;;25.45;23.19
81520;BME280;70948;51.448;-0.148;2023-06-22T04:45:35;101601.89;;;25.20;23.22
81520;BME280;70948;51.448;-0.148;2023-06-22T04:48:01;101600.81;;;25.05;23.18
81520;BME280;70948;51.448;-0.148;2023-06-22T04:50:26;101600.54;;;25.13;23.20
81520;BME280;70948;51.448;-0.148;2023-06-22T04:52:52;101602.13;;;25.42;23.05
81520;BME280;70948;51.448;-0.148;2023-06-22T04:55:18;101601.61;;;25.13;23.07
81520;BME280;70948;51.448;-0.148;2023-06-22T04:57:43;101600.85;;;25.24;23.08
81520;BME280;70948;51.448;-0.148;2023-06-22T05:00:10;101597.54;;;25.42;23.07
81520;BME280;70948;51.448;-0.148;2023-06-22T05:02:35;101591.26;;;25.46;23.11
81520;BME280;70948;51.448;-0.148;2023-06-22T05:05:00;101588.99;;;24.52;23.18
81520;BME280;70948;51.448;-0.148;2023-06-22T05:07:26;101593.54;;;25.45;23.14
81520;BME280;70948;51.448;-0.148;2023-06-22T05:09:53;101596.58;;;25.45;23.14
81520;BME280;70948;51.448;-0.148;2023-06-22T05:12:17;101604.83;;;25.43;23.05
81520;BME280;70948;51.448;-0.148;2023-06-22T05:14:43;101610.21;;;25.56;23.09
81520;BME280;70948;51.448;-0.148;2023-06-22T05:17:09;101615.80;;;25.40;23.10
81520;BME280;70948;51.448;-0.148;2023-06-22T05:19:35;101615.91;;;25.53;23.08
81520;BME280;70948;51.448;-0.148;2023-06-22T05:22:00;101613.07;;;25.26;23.18
81520;BME280;70948;51.448;-0.148;2023-06-22T05:24:26;101613.35;;;25.14;23.18
81520;BME280;70948;51.448;-0.148;2023-06-22T05:26:52;101615.69;;;25.15;23.27
81520;BME280;70948;51.448;-0.148;2023-06-22T05:29:17;101617.00;;;25.29;23.16
81520;BME280;70948;51.448;-0.148;2023-06-22T05:31:43;101613.37;;;25.40;23.18
81520;BME280;70948;51.448;-0.148;2023-06-22T05:34:09;101611.95;;;25.06;23.19
81520;BME280;70948;51.448;-0.148;2023-06-22T05:36:34;101610.23;;;25.02;23.21
81520;BME280;70948;51.448;-0.148;2023-06-22T05:39:11;101613.28;;;25.10;23.15
81520;BME280;70948;51.448;-0.148;2023-06-22T05:41:26;101617.03;;;25.58;23.23
81520;BME280;70948;51.448;-0.148;2023-06-22T05:43:51;101618.32;;;25.32;23.33
81520;BME280;70948;51.448;-0.148;2023-06-22T05:46:18;101621.71;;;25.33;23.31
81520;BME280;70948;51.448;-0.148;2023-06-22T05:48:44;101622.90;;;25.16;23.30
81520;BME280;70948;51.448;-0.148;2023-06-22T05:51:09;101620.49;;;25.08;23.37
81520;BME280;70948;51.448;-0.148;2023-06-22T05:53:34;101620.98;;;25.31;23.30
81520;BME280;70948;51.448;-0.148;2023-06-22T05:56:00;101624.59;;;24.98;23.39
81520;BME280;70948;51.448;-0.148;2023-06-22T05:58:26;101623.21;;;25.37;23.47
81520;BME280;70948;51.448;-0.148;2023-06-22T06:00:51;101622.13;;;25.02;23.55
81520;BME280;70948;51.448;-0.148;2023-06-22T06:03:17;101622.18;;;25.11;23.57
81520;BME280;70948;51.448;-0.148;2023-06-22T06:05:43;101621.30;;;25.32;23.57
81520;BME280;70948;51.448;-0.148;2023-06-22T06:08:09;101623.60;;;25.48;23.48
81520;BME280;70948;51.448;-0.148;2023-06-22T06:10:35;101624.91;;;25.34;23.59
81520;BME280;70948;51.448;-0.148;2023-06-22T06:13:00;101622.12;;;24.93;23.64
81520;BME280;70948;51.448;-0.148;2023-06-22T06:15:31;101627.44;;;25.40;23.64
81520;BME280;70948;51.448;-0.148;2023-06-22T06:17:53;101623.79;;;25.13;23.61
81520;BME280;70948;51.448;-0.148;2023-06-22T06:20:19;101619.56;;;25.00;23.66
81520;BME280;70948;51.448;-0.148;2023-06-22T06:22:43;101617.62;;;25.16;23.63
81520;BME280;70948;51.448;-0.148;2023-06-22T06:25:09;101618.02;;;25.23;23.53
81520;BME280;70948;51.448;-0.148;2023-06-22T06:27:34;101617.08;;;25.20;23.62
81520;BME280;70948;51.448;-0.148;2023-06-22T06:30:00;101613.89;;;24.87;23.60
81520;BME280;70948;51.448;-0.148;2023-06-22T06:32:26;101614.36;;;25.11;23.67
81520;BME280;70948;51.448;-0.148;2023-06-22T06:34:51;101613.43;;;25.61;23.47
81520;BME280;70948;51.448;-0.148;2023-06-22T06:37:17;101616.81;;;25.00;23.73
81520;BME280;70948;51.448;-0.148;2023-06-22T06:39:43;101613.45;;;25.45;23.64
81520;BME280;70948;51.448;-0.148;2023-06-22T06:42:08;101611.92;;;25.11;23.64
81520;BME280;70948;51.448;-0.148;2023-06-22T06:44:34;101605.94;;;25.06;23.60
81520;BME280;70948;51.448;-0.148;2023-06-22T06:47:00;101601.31;;;25.66;23.53
81520;BME280;70948;51.448;-0.148;2023-06-22T06:49:25;101596.60;;;25.04;23.73
81520;BME280;70948;51.448;-0.148;2023-06-22T06:51:51;101592.61;;;25.76;23.58
81520;BME280;70948;51.448;-0.148;2023-06-22T06:54:22;101593.09;;;25.22;23.57
81520;BME280;70948;51.448;-0.148;2023-06-22T06:56:42;101592.51;;;25.42;23.51
81520;BME280;70948;51.448;-0.148;2023-06-22T06:59:08;101594.89;;;25.62;23.67
81520;BME280;70948;51.448;-0.148;2023-06-22T07:01:34;101594.59;;;24.74;24.10
81520;BME280;70948;51.448;-0.148;2023-06-22T07:04:00;101591.42;;;23.61;24.94
81520;BME280;70948;51.448;-0.148;2023-06-22T07:06:25;101595.14;;;24.54;24.45
81520;BME280;70948;51.448;-0.148;2023-06-22T07:08:51;101592.44;;;23.56;25.18
81520;BME280;70948;51.448;-0.148;2023-06-22T07:11:18;101594.30;;;22.34;26.27
81520;BME280;70948;51.448;-0.148;2023-06-22T07:13:42;101597.33;;;21.84;26.87
81520;BME280;70948;51.448;-0.148;2023-06-22T07:16:08;101599.03;;;22.80;26.31
81520;BME280;70948;51.448;-0.148;2023-06-22T07:18:33;101598.99;;;22.19;26.74
81520;BME280;70948;51.448;-0.148;2023-06-22T07:20:59;101596.02;;;22.33;26.97
81520;BME280;70948;51.448;-0.148;2023-06-22T07:23:25;101597.49;;;22.08;27.04
81520;BME280;70948;51.448;-0.148;2023-06-22T07:25:51;101592.99;;;21.95;27.13
81520;BME280;70948;51.448;-0.148;2023-06-22T07:28:16;101587.23;;;22.77;26.72
81520;BME280;70948;51.448;-0.148;2023-06-22T07:30:42;101587.73;;;22.55;27.06
81520;BME280;70948;51.448;-0.148;2023-06-22T07:33:08;101586.90;;;22.46;27.02
81520;BME280;70948;51.448;-0.148;2023-06-22T07:35:33;101582.34;;;22.53;26.85
81520;BME280;70948;51.448;-0.148;2023-06-22T07:37:59;101583.45;;;22.59;26.57
81520;BME280;70948;51.448;-0.148;2023-06-22T07:40:26;101579.91;;;22.47;26.89
81520;BME280;70948;51.448;-0.148;2023-06-22T07:42:50;101586.57;;;23.78;26.22
81520;BME280;70948;51.448;-0.148;2023-06-22T07:45:15;101585.43;;;23.11;26.32
81520;BME280;70948;51.448;-0.148;2023-06-22T07:47:40;101587.09;;;23.85;25.99
81520;BME280;70948;51.448;-0.148;2023-06-22T07:50:06;101587.43;;;23.48;26.08
81520;BME280;70948;51.448;-0.148;2023-06-22T07:52:32;101588.71;;;23.71;25.94
81520;BME280;70948;51.448;-0.148;2023-06-22T07:54:57;101587.69;;;25.33;24.88
81520;BME280;70948;51.448;-0.148;2023-06-22T07:57:22;101586.10;;;24.91;24.97
81520;BME280;70948;51.448;-0.148;2023-06-22T07:59:48;101581.20;;;25.86;24.46
81520;BME280;70948;51.448;-0.148;2023-06-22T08:02:14;101585.97;;;24.66;25.23
81520;BME280;70948;51.448;-0.148;2023-06-22T08:04:40;101587.10;;;24.83;25.13
81520;BME280;70948;51.448;-0.148;2023-06-22T08:07:05;101580.71;;;25.83;24.59
81520;BME280;70948;51.448;-0.148;2023-06-22T08:09:31;101576.98;;;26.26;24.75
81520;BME280;70948;51.448;-0.148;2023-06-22T08:11:56;101576.14;;;25.49;25.73
81520;BME280;70948;51.448;-0.148;2023-06-22T08:14:22;101576.68;;;25.66;25.64
81520;BME280;70948;51.448;-0.148;2023-06-22T08:16:48;101574.46;;;25.61;25.30
81520;BME280;70948;51.448;-0.148;2023-06-22T08:19:13;101573.15;;;25.90;25.00
81520;BME280;70948;51.448;-0.148;2023-06-22T08:21:39;101572.42;;;26.16;24.96
81520;BME280;70948;51.448;-0.148;2023-06-22T08:24:05;101578.78;;;26.43;24.43
81520;BME280;70948;51.448;-0.148;2023-06-22T08:26:30;101583.33;;;26.85;24.22
81520;BME280;70948;51.448;-0.148;2023-06-22T08:28:56;101577.87;;;26.86;23.94
81520;BME280;70948;51.448;-0.148;2023-06-22T08:31:21;101578.77;;;23.61;27.01
81520;BME280;70948;51.448;-0.148;2023-06-22T08:33:47;101578.26;;;23.61;27.53
81520;BME280;70948;51.448;-0.148;2023-06-22T08:36:13;101576.78;;;23.44;27.65
81520;BME280;70948;51.448;-0.148;2023-06-22T08:38:38;101573.96;;;23.16;27.94
81520;BME280;70948;51.448;-0.148;2023-06-22T08:41:04;101573.53;;;23.99;27.33
81520;BME280;70948;51.448;-0.148;2023-06-22T08:43:29;101571.42;;;24.09;27.26
81520;BME280;70948;51.448;-0.148;2023-06-22T08:45:55;101568.13;;;24.35;27.16
81520;BME280;70948;51.448;-0.148;2023-06-22T08:48:20;101568.70;;;23.37;26.80
81520;BME280;70948;51.448;-0.148;2023-06-22T08:50:45;101570.80;;;21.89;27.38
81520;BME280;70948;51.448;-0.148;2023-06-22T08:53:11;101560.43;;;22.93;26.21
81520;BME280;70948;51.448;-0.148;2023-06-22T08:55:37;101563.67;;;22.40;26.45
81520;BME280;70948;51.448;-0.148;2023-06-22T08:58:03;101569.31;;;22.20;26.44
81520;BME280;70948;51.448;-0.148;2023-06-22T09:00:28;101570.05;;;22.31;26.44
81520;BME280;70948;51.448;-0.148;2023-06-22T09:02:54;101563.29;;;23.46;25.57
81520;BME280;70948;51.448;-0.148;2023-06-22T09:05:19;101564.85;;;22.83;26.17
81520;BME280;70948;51.448;-0.148;2023-06-22T09:07:45;101572.24;;;22.04;26.60
81520;BME280;70948;51.448;-0.148;2023-06-22T09:10:10;101569.26;;;22.68;26.25
81520;BME280;70948;51.448;-0.148;2023-06-22T09:12:36;101574.93;;;22.18;26.48
81520;BME280;70948;51.448;-0.148;2023-06-22T09:15:02;101569.84;;;22.86;25.98
81520;BME280;70948;51.448;-0.148;2023-06-22T09:17:27;101574.37;;;22.72;26.02
81520;BME280;70948;51.448;-0.148;2023-06-22T09:19:53;101574.26;;;24.02;25.08
81520;BME280;70948;51.448;-0.148;2023-06-22T09:22:19;101572.07;;;23.68;25.31
81520;BME280;70948;51.448;-0.148;2023-06-22T09:24:44;101571.68;;;23.74;25.19
81520;BME280;70948;51.448;-0.148;2023-06-22T09:27:10;101572.69;;;23.77;25.05
81520;BME280;70948;51.448;-0.148;2023-06-22T09:29:35;101573.69;;;23.91;24.99
81520;BME280;70948;51.448;-0.148;2023-06-22T09:32:01;101570.76;;;23.23;25.12
81520;BME280;70948;51.448;-0.148;2023-06-22T09:34:27;101572.50;;;22.72;25.56
81520;BME280;70948;51.448;-0.148;2023-06-22T09:36:52;101574.11;;;23.78;25.09
81520;BME280;70948;51.448;-0.148;2023-06-22T09:39:18;101573.31;;;23.11;25.56
81520;BME280;70948;51.448;-0.148;2023-06-22T09:41:44;101575.07;;;23.56;25.08
81520;BME280;70948;51.448;-0.148;2023-06-22T09:44:09;101576.09;;;23.29;25.42
81520;BME280;70948;51.448;-0.148;2023-06-22T09:46:35;101578.64;;;22.37;25.59
81520;BME280;70948;51.448;-0.148;2023-06-22T09:49:01;101575.15;;;23.34;25.06
81520;BME280;70948;51.448;-0.148;2023-06-22T09:51:26;101574.22;;;23.45;25.10
81520;BME280;70948;51.448;-0.148;2023-06-22T09:53:52;101573.78;;;23.29;25.32
81520;BME280;70948;51.448;-0.148;2023-06-22T09:56:18;101572.00;;;23.62;25.07
81520;BME280;70948;51.448;-0.148;2023-06-22T09:58:44;101570.84;;;23.19;25.06
81520;BME280;70948;51.448;-0.148;2023-06-22T10:01:08;101571.39;;;22.19;25.54
81520;BME280;70948;51.448;-0.148;2023-06-22T10:03:34;101572.96;;;23.14;24.78
81520;BME280;70948;51.448;-0.148;2023-06-22T10:06:00;101575.00;;;26.04;24.45
81520;BME280;70948;51.448;-0.148;2023-06-22T10:08:25;101575.21;;;26.18;23.97
81520;BME280;70948;51.448;-0.148;2023-06-22T10:10:51;101574.19;;;26.16;23.69
81520;BME280;70948;51.448;-0.148;2023-06-22T10:13:16;101568.10;;;23.28;23.57
81520;BME280;70948;51.448;-0.148;2023-06-22T10:15:42;101566.92;;;23.98;24.67
81520;BME280;70948;51.448;-0.148;2023-06-22T10:18:08;101566.21;;;22.57;25.33
81520;BME280;70948;51.448;-0.148;2023-06-22T10:20:38;101565.24;;;22.40;25.79
81520;BME280;70948;51.448;-0.148;2023-06-22T10:22:59;101563.91;;;22.91;25.45
81520;BME280;70948;51.448;-0.148;2023-06-22T10:25:26;101563.98;;;22.54;25.09
81520;BME280;70948;51.448;-0.148;2023-06-22T10:27:51;101562.56;;;21.72;25.94
81520;BME280;70948;51.448;-0.148;2023-06-22T10:30:21;101559.86;;;21.71;26.09
81520;BME280;70948;51.448;-0.148;2023-06-22T10:32:42;101561.76;;;23.26;25.16
81520;BME280;70948;51.448;-0.148;2023-06-22T10:35:08;101564.28;;;21.11;27.10
81520;BME280;70948;51.448;-0.148;2023-06-22T10:37:33;101559.40;;;21.82;26.12
81520;BME280;70948;51.448;-0.148;2023-06-22T10:39:58;101558.76;;;22.24;25.35
81520;BME280;70948;51.448;-0.148;2023-06-22T10:42:24;101559.30;;;21.65;25.33
81520;BME280;70948;51.448;-0.148;2023-06-22T10:44:50;101558.23;;;23.53;23.74
81520;BME280;70948;51.448;-0.148;2023-06-22T10:47:15;101552.48;;;22.31;24.63
81520;BME280;70948;51.448;-0.148;2023-06-22T10:49:41;101554.80;;;22.48;24.54
81520;BME280;70948;51.448;-0.148;2023-06-22T10:52:07;101554.69;;;22.57;24.01
81520;BME280;70948;51.448;-0.148;2023-06-22T10:54:32;101554.16;;;22.70;23.65
81520;BME280;70948;51.448;-0.148;2023-06-22T10:56:58;101552.69;;;21.23;24.94
81520;BME280;70948;51.448;-0.148;2023-06-22T10:59:24;101550.05;;;21.91;25.09
81520;BME280;70948;51.448;-0.148;2023-06-22T11:01:55;101552.49;;;22.57;24.48
81520;BME280;70948;51.448;-0.148;2023-06-22T11:04:49;101552.91;;;23.24;24.33
81520;BME280;70948;51.448;-0.148;2023-06-22T11:07:09;101551.52;;;21.94;25.06
81520;BME280;70948;51.448;-0.148;2023-06-22T11:09:34;101548.95;;;22.71;24.77
81520;BME280;70948;51.448;-0.148;2023-06-22T11:12:00;101550.82;;;22.52;24.87
81520;BME280;70948;51.448;-0.148;2023-06-22T11:14:26;101552.88;;;23.01;24.76
81520;BME280;70948;51.448;-0.148;2023-06-22T11:16:51;101554.47;;;22.65;25.00
81520;BME280;70948;51.448;-0.148;2023-06-22T11:19:17;101555.97;;;22.81;24.99
81520;BME280;70948;51.448;-0.148;2023-06-22T11:21:43;101554.02;;;23.32;24.64
81520;BME280;70948;51.448;-0.148;2023-06-22T11:24:08;101551.58;;;22.72;25.02
81520;BME280;70948;51.448;-0.148;2023-06-22T11:26:34;101554.80;;;23.24;24.65
81520;BME280;70948;51.448;-0.148;2023-06-22T11:29:00;101554.30;;;23.26;24.62
81520;BME280;70948;51.448;-0.148;2023-06-22T11:31:25;101552.63;;;23.74;24.40
81520;BME280;70948;51.448;-0.148;2023-06-22T11:33:51;101556.30;;;23.38;24.50
81520;BME280;70948;51.448;-0.148;2023-06-22T11:36:17;101559.65;;;23.20;24.74
81520;BME280;70948;51.448;-0.148;2023-06-22T11:38:42;101553.70;;;22.88;24.58
81520;BME280;70948;51.448;-0.148;2023-06-22T11:41:09;101548.22;;;23.12;24.70
81520;BME280;70948;51.448;-0.148;2023-06-22T11:43:34;101547.82;;;23.33;24.66
81520;BME280;70948;51.448;-0.148;2023-06-22T11:45:59;101543.66;;;23.48;24.64
81520;BME280;70948;51.448;-0.148;2023-06-22T11:48:25;101531.65;;;23.89;24.24
81520;BME280;70948;51.448;-0.148;2023-06-22T11:50:50;101534.18;;;23.20;24.63
81520;BME280;70948;51.448;-0.148;2023-06-22T11:53:16;101536.12;;;22.78;24.98
81520;BME280;70948;51.448;-0.148;2023-06-22T11:55:42;101529.00;;;23.43;24.47
81520;BME280;70948;51.448;-0.148;2023-06-22T11:58:07;101524.18;;;23.19;24.48
81520;BME280;70948;51.448;-0.148;2023-06-22T12:00:33;101523.84;;;23.18;24.44
81520;BME280;70948;51.448;-0.148;2023-06-22T12:03:04;101523.00;;;23.70;24.18
81520;BME280;70948;51.448;-0.148;2023-06-22T12:05:24;101528.28;;;23.96;23.74
81520;BME280;70948;51.448;-0.148;2023-06-22T12:07:52;101518.75;;;25.71;21.75
81520;BME280;70948;51.448;-0.148;2023-06-22T12:10:17;101510.33;;;27.30;19.92
81520;BME280;70948;51.448;-0.148;2023-06-22T12:12:46;101512.89;;;28.01;19.34
81520;BME280;70948;51.448;-0.148;2023-06-22T12:15:08;101508.85;;;27.40;19.23
81520;BME280;70948;51.448;-0.148;2023-06-22T12:17:33;101508.52;;;26.30;19.81
81520;BME280;70948;51.448;-0.148;2023-06-22T12:19:58;101510.94;;;25.97;19.55
81520;BME280;70948;51.448;-0.148;2023-06-22T12:22:24;101508.54;;;26.33;19.63
81520;BME280;70948;51.448;-0.148;2023-06-22T12:24:50;101508.47;;;25.70;19.83
81520;BME280;70948;51.448;-0.148;2023-06-22T12:27:16;101509.00;;;25.94;19.65
81520;BME280;70948;51.448;-0.148;2023-06-22T12:29:41;101513.98;;;27.26;18.89
81520;BME280;70948;51.448;-0.148;2023-06-22T12:32:07;101516.03;;;25.75;19.90